sensor_id;sensor_type;location;lat;lon;timestamp;P1;durP1;ratioP1;P2;durP2;ratioP2
66380;SDS011;53177;52.648;1.214;2023-04-24T00:00:13;33.00;;;13.80;;
66380;SDS011;53177;52.648;1.214;2023-04-24T00:02:40;31.85;;;13.30;;
66380;SDS011;53177;52.648;1.214;2023-04-24T00:05:06;38.17;;;13.37;;
66380;SDS011;53177;52.648;1.214;2023-04-24T00:07:33;32.03;;;12.10;;
66380;SDS011;53177;52.648;1.214;2023-04-24T00:09:58;36.13;;;14.40;;
66380;SDS011;53177;52.648;1.214;2023-04-24T00:12:25;36.28;;;14.10;;
66380;SDS011;53177;52.648;1.214;2023-04-24T00:14:51;35.33;;;12.77;;
66380;SDS011;53177;52.648;1.214;2023-04-24T00:17:16;33.05;;;13.75;;
66380;SDS011;53177;52.648;1.214;2023-04-24T00:19:45;38.22;;;15.07;;
66380;SDS011;53177;52.648;1.214;2023-04-24T00:22:10;39.00;;;15.27;;
66380;SDS011;53177;52.648;1.214;2023-04-24T00:24:36;34.33;;;15.50;;
66380;SDS011;53177;52.648;1.214;2023-04-24T00:27:01;38.00;;;14.67;;
66380;SDS011;53177;52.648;1.214;2023-04-24T00:29:27;35.30;;;15.20;;
66380;SDS011;53177;52.648;1.214;2023-04-24T00:31:53;33.78;;;14.68;;
66380;SDS011;53177;52.648;1.214;2023-04-24T00:34:19;38.07;;;14.07;;
66380;SDS011;53177;52.648;1.214;2023-04-24T00:36:44;36.00;;;13.48;;
66380;SDS011;53177;52.648;1.214;2023-04-24T00:39:10;37.85;;;14.52;;
66380;SDS011;53177;52.648;1.214;2023-04-24T00:41:35;41.97;;;14.00;;
66380;SDS011;53177;52.648;1.214;2023-04-24T00:44:01;34.80;;;13.65;;
66380;SDS011;53177;52.648;1.214;2023-04-24T00:46:26;32.13;;;12.27;;
66380;SDS011;53177;52.648;1.214;2023-04-24T00:48:52;32.80;;;12.37;;
66380;SDS011;53177;52.648;1.214;2023-04-24T00:51:17;30.10;;;11.80;;
66380;SDS011;53177;52.648;1.214;2023-04-24T00:53:43;30.35;;;10.80;;
66380;SDS011;53177;52.648;1.214;2023-04-24T00:56:08;28.40;;;11.20;;
66380;SDS011;53177;52.648;1.214;2023-04-24T00:58:34;27.25;;;10.27;;
66380;SDS011;53177;52.648;1.214;2023-04-24T01:01:00;31.33;;;10.83;;
66380;SDS011;53177;52.648;1.214;2023-04-24T01:03:28;27.95;;;9.27;;
66380;SDS011;53177;52.648;1.214;2023-04-24T01:05:55;25.40;;;8.75;;
66380;SDS011;53177;52.648;1.214;2023-04-24T01:08:24;21.37;;;8.80;;
66380;SDS011;53177;52.648;1.214;2023-04-24T01:10:51;25.77;;;8.63;;
66380;SDS011;53177;52.648;1.214;2023-04-24T01:13:18;25.38;;;7.93;;
66380;SDS011;53177;52.648;1.214;2023-04-24T01:15:44;24.27;;;7.78;;
66380;SDS011;53177;52.648;1.214;2023-04-24T01:18:10;26.53;;;8.13;;
66380;SDS011;53177;52.648;1.214;2023-04-24T01:20:36;24.10;;;6.57;;
66380;SDS011;53177;52.648;1.214;2023-04-24T01:23:05;24.27;;;6.60;;
66380;SDS011;53177;52.648;1.214;2023-04-24T01:25:30;19.80;;;6.50;;
66380;SDS011;53177;52.648;1.214;2023-04-24T01:27:56;21.30;;;7.05;;
66380;SDS011;53177;52.648;1.214;2023-04-24T01:30:22;18.40;;;6.03;;
66380;SDS011;53177;52.648;1.214;2023-04-24T01:32:48;20.75;;;5.60;;
66380;SDS011;53177;52.648;1.214;2023-04-24T01:35:13;15.87;;;5.23;;
66380;SDS011;53177;52.648;1.214;2023-04-24T01:37:39;19.38;;;5.60;;
66380;SDS011;53177;52.648;1.214;2023-04-24T01:40:05;19.90;;;5.33;;
66380;SDS011;53177;52.648;1.214;2023-04-24T01:42:32;16.00;;;4.65;;
66380;SDS011;53177;52.648;1.214;2023-04-24T01:44:58;18.45;;;5.47;;
66380;SDS011;53177;52.648;1.214;2023-04-24T01:47:24;19.97;;;5.30;;
66380;SDS011;53177;52.648;1.214;2023-04-24T01:49:50;17.95;;;4.40;;
66380;SDS011;53177;52.648;1.214;2023-04-24T01:52:16;14.30;;;4.18;;
66380;SDS011;53177;52.648;1.214;2023-04-24T01:54:43;17.50;;;4.47;;
66380;SDS011;53177;52.648;1.214;2023-04-24T01:57:09;18.85;;;4.35;;
66380;SDS011;53177;52.648;1.214;2023-04-24T01:59:35;12.73;;;3.75;;
66380;SDS011;53177;52.648;1.214;2023-04-24T02:02:01;19.15;;;4.00;;
66380;SDS011;53177;52.648;1.214;2023-04-24T02:04:27;15.27;;;3.80;;
66380;SDS011;53177;52.648;1.214;2023-04-24T02:06:53;16.27;;;3.43;;
66380;SDS011;53177;52.648;1.214;2023-04-24T02:09:18;16.50;;;3.65;;
66380;SDS011;53177;52.648;1.214;2023-04-24T02:11:43;14.50;;;3.53;;
66380;SDS011;53177;52.648;1.214;2023-04-24T02:14:09;18.47;;;4.00;;
66380;SDS011;53177;52.648;1.214;2023-04-24T02:16:34;15.80;;;3.87;;
66380;SDS011;53177;52.648;1.214;2023-04-24T02:19:00;21.30;;;4.20;;
66380;SDS011;53177;52.648;1.214;2023-04-24T02:21:26;15.63;;;3.78;;
66380;SDS011;53177;52.648;1.214;2023-04-24T02:23:52;15.90;;;4.05;;
66380;SDS011;53177;52.648;1.214;2023-04-24T02:26:18;18.67;;;3.43;;
66380;SDS011;53177;52.648;1.214;2023-04-24T02:28:43;18.60;;;4.13;;
66380;SDS011;53177;52.648;1.214;2023-04-24T02:31:09;17.77;;;3.90;;
66380;SDS011;53177;52.648;1.214;2023-04-24T02:33:34;14.25;;;3.25;;
66380;SDS011;53177;52.648;1.214;2023-04-24T02:36:00;17.40;;;4.43;;
66380;SDS011;53177;52.648;1.214;2023-04-24T02:38:29;18.38;;;3.67;;
66380;SDS011;53177;52.648;1.214;2023-04-24T02:40:54;17.57;;;4.43;;
66380;SDS011;53177;52.648;1.214;2023-04-24T02:43:20;17.42;;;4.00;;
66380;SDS011;53177;52.648;1.214;2023-04-24T02:45:46;15.80;;;3.87;;
66380;SDS011;53177;52.648;1.214;2023-04-24T02:48:11;16.35;;;3.28;;
66380;SDS011;53177;52.648;1.214;2023-04-24T02:50:37;14.43;;;2.80;;
66380;SDS011;53177;52.648;1.214;2023-04-24T02:53:02;15.53;;;3.43;;
66380;SDS011;53177;52.648;1.214;2023-04-24T02:55:28;14.03;;;2.90;;
66380;SDS011;53177;52.648;1.214;2023-04-24T02:57:53;15.52;;;3.00;;
66380;SDS011;53177;52.648;1.214;2023-04-24T03:00:19;13.47;;;3.83;;
66380;SDS011;53177;52.648;1.214;2023-04-24T03:02:44;16.57;;;3.33;;
66380;SDS011;53177;52.648;1.214;2023-04-24T03:05:10;17.83;;;3.75;;
66380;SDS011;53177;52.648;1.214;2023-04-24T03:07:37;11.85;;;2.78;;
66380;SDS011;53177;52.648;1.214;2023-04-24T03:10:02;17.27;;;3.30;;
66380;SDS011;53177;52.648;1.214;2023-04-24T03:12:28;12.55;;;2.80;;
66380;SDS011;53177;52.648;1.214;2023-04-24T03:14:54;17.60;;;3.10;;
66380;SDS011;53177;52.648;1.214;2023-04-24T03:17:19;14.23;;;2.50;;
66380;SDS011;53177;52.648;1.214;2023-04-24T03:19:45;14.07;;;2.93;;
66380;SDS011;53177;52.648;1.214;2023-04-24T03:22:10;13.52;;;2.40;;
66380;SDS011;53177;52.648;1.214;2023-04-24T03:24:36;16.90;;;2.63;;
66380;SDS011;53177;52.648;1.214;2023-04-24T03:27:01;12.97;;;3.07;;
66380;SDS011;53177;52.648;1.214;2023-04-24T03:29:27;11.30;;;2.30;;
66380;SDS011;53177;52.648;1.214;2023-04-24T03:31:52;11.00;;;2.30;;
66380;SDS011;53177;52.648;1.214;2023-04-24T03:34:17;12.23;;;2.50;;
66380;SDS011;53177;52.648;1.214;2023-04-24T03:36:43;13.10;;;2.40;;
66380;SDS011;53177;52.648;1.214;2023-04-24T03:39:08;18.77;;;2.40;;
66380;SDS011;53177;52.648;1.214;2023-04-24T03:41:33;8.03;;;2.07;;
66380;SDS011;53177;52.648;1.214;2023-04-24T03:43:59;12.30;;;2.30;;
66380;SDS011;53177;52.648;1.214;2023-04-24T03:46:25;9.10;;;1.88;;
66380;SDS011;53177;52.648;1.214;2023-04-24T03:48:50;10.90;;;2.13;;
66380;SDS011;53177;52.648;1.214;2023-04-24T03:51:15;8.57;;;2.00;;
66380;SDS011;53177;52.648;1.214;2023-04-24T03:53:41;11.98;;;2.20;;
66380;SDS011;53177;52.648;1.214;2023-04-24T03:56:06;12.93;;;2.38;;
66380;SDS011;53177;52.648;1.214;2023-04-24T03:58:32;6.07;;;1.40;;
66380;SDS011;53177;52.648;1.214;2023-04-24T04:00:57;12.10;;;1.73;;
66380;SDS011;53177;52.648;1.214;2023-04-24T04:03:23;8.93;;;1.75;;
66380;SDS011;53177;52.648;1.214;2023-04-24T04:05:50;19.20;;;2.70;;
66380;SDS011;53177;52.648;1.214;2023-04-24T04:08:19;6.72;;;1.60;;
66380;SDS011;53177;52.648;1.214;2023-04-24T04:10:44;9.00;;;1.53;;
66380;SDS011;53177;52.648;1.214;2023-04-24T04:13:10;9.03;;;1.90;;
66380;SDS011;53177;52.648;1.214;2023-04-24T04:15:35;8.32;;;1.55;;
66380;SDS011;53177;52.648;1.214;2023-04-24T04:18:00;10.25;;;2.00;;
66380;SDS011;53177;52.648;1.214;2023-04-24T04:20:26;8.73;;;1.80;;
66380;SDS011;53177;52.648;1.214;2023-04-24T04:22:51;9.47;;;2.07;;
66380;SDS011;53177;52.648;1.214;2023-04-24T04:25:17;9.37;;;1.90;;
66380;SDS011;53177;52.648;1.214;2023-04-24T04:27:44;7.78;;;1.92;;
66380;SDS011;53177;52.648;1.214;2023-04-24T04:30:12;11.05;;;1.77;;
66380;SDS011;53177;52.648;1.214;2023-04-24T04:32:38;9.60;;;1.90;;
66380;SDS011;53177;52.648;1.214;2023-04-24T04:35:04;9.63;;;1.77;;
66380;SDS011;53177;52.648;1.214;2023-04-24T04:37:30;13.35;;;1.63;;
66380;SDS011;53177;52.648;1.214;2023-04-24T04:39:56;8.60;;;1.63;;
66380;SDS011;53177;52.648;1.214;2023-04-24T04:42:23;10.73;;;1.52;;
66380;SDS011;53177;52.648;1.214;2023-04-24T04:44:49;9.30;;;1.33;;
66380;SDS011;53177;52.648;1.214;2023-04-24T04:47:15;7.80;;;1.50;;
66380;SDS011;53177;52.648;1.214;2023-04-24T04:49:42;7.70;;;1.50;;
66380;SDS011;53177;52.648;1.214;2023-04-24T04:52:08;10.55;;;1.88;;
66380;SDS011;53177;52.648;1.214;2023-04-24T04:54:33;8.40;;;1.60;;
66380;SDS011;53177;52.648;1.214;2023-04-24T04:56:59;7.50;;;2.10;;
66380;SDS011;53177;52.648;1.214;2023-04-24T04:59:25;7.27;;;1.70;;
66380;SDS011;53177;52.648;1.214;2023-04-24T05:01:51;5.32;;;1.40;;
66380;SDS011;53177;52.648;1.214;2023-04-24T05:04:16;9.50;;;1.53;;
66380;SDS011;53177;52.648;1.214;2023-04-24T05:06:42;6.28;;;1.50;;
66380;SDS011;53177;52.648;1.214;2023-04-24T05:09:07;8.93;;;1.63;;
66380;SDS011;53177;52.648;1.214;2023-04-24T05:11:33;6.87;;;1.57;;
66380;SDS011;53177;52.648;1.214;2023-04-24T05:13:58;10.77;;;2.10;;
66380;SDS011;53177;52.648;1.214;2023-04-24T05:16:23;8.00;;;1.90;;
66380;SDS011;53177;52.648;1.214;2023-04-24T05:18:49;9.98;;;2.00;;
66380;SDS011;53177;52.648;1.214;2023-04-24T05:21:14;9.70;;;2.17;;
66380;SDS011;53177;52.648;1.214;2023-04-24T05:23:40;9.77;;;2.10;;
66380;SDS011;53177;52.648;1.214;2023-04-24T05:26:05;7.47;;;2.43;;
66380;SDS011;53177;52.648;1.214;2023-04-24T05:28:31;9.80;;;2.83;;
66380;SDS011;53177;52.648;1.214;2023-04-24T05:30:56;9.67;;;2.10;;
66380;SDS011;53177;52.648;1.214;2023-04-24T05:33:21;8.68;;;2.35;;
66380;SDS011;53177;52.648;1.214;2023-04-24T05:35:47;5.80;;;1.80;;
66380;SDS011;53177;52.648;1.214;2023-04-24T05:38:13;10.15;;;2.30;;
66380;SDS011;53177;52.648;1.214;2023-04-24T05:40:42;9.07;;;2.20;;
66380;SDS011;53177;52.648;1.214;2023-04-24T05:43:07;8.13;;;1.90;;
66380;SDS011;53177;52.648;1.214;2023-04-24T05:45:33;9.02;;;2.60;;
66380;SDS011;53177;52.648;1.214;2023-04-24T05:48:00;9.43;;;2.43;;
66380;SDS011;53177;52.648;1.214;2023-04-24T05:50:26;5.90;;;1.80;;
66380;SDS011;53177;52.648;1.214;2023-04-24T05:52:52;11.60;;;2.83;;
66380;SDS011;53177;52.648;1.214;2023-04-24T05:55:17;8.87;;;2.37;;
66380;SDS011;53177;52.648;1.214;2023-04-24T05:57:43;8.55;;;2.40;;
66380;SDS011;53177;52.648;1.214;2023-04-24T06:00:09;8.93;;;2.40;;
66380;SDS011;53177;52.648;1.214;2023-04-24T06:02:37;11.57;;;2.80;;
66380;SDS011;53177;52.648;1.214;2023-04-24T06:05:03;13.43;;;2.78;;
66380;SDS011;53177;52.648;1.214;2023-04-24T06:07:29;12.85;;;2.72;;
66380;SDS011;53177;52.648;1.214;2023-04-24T06:09:55;10.00;;;2.30;;
66380;SDS011;53177;52.648;1.214;2023-04-24T06:12:21;12.60;;;3.10;;
66380;SDS011;53177;52.648;1.214;2023-04-24T06:14:47;10.43;;;2.58;;
66380;SDS011;53177;52.648;1.214;2023-04-24T06:17:13;11.40;;;2.50;;
66380;SDS011;53177;52.648;1.214;2023-04-24T06:19:38;10.90;;;3.10;;
66380;SDS011;53177;52.648;1.214;2023-04-24T06:22:04;9.30;;;2.30;;
66380;SDS011;53177;52.648;1.214;2023-04-24T06:24:29;12.40;;;2.47;;
66380;SDS011;53177;52.648;1.214;2023-04-24T06:26:55;14.30;;;2.50;;
66380;SDS011;53177;52.648;1.214;2023-04-24T06:29:21;11.55;;;2.92;;
66380;SDS011;53177;52.648;1.214;2023-04-24T06:31:47;10.83;;;2.53;;
66380;SDS011;53177;52.648;1.214;2023-04-24T06:34:12;11.20;;;2.77;;
66380;SDS011;53177;52.648;1.214;2023-04-24T06:36:38;10.63;;;2.70;;
66380;SDS011;53177;52.648;1.214;2023-04-24T06:39:03;9.03;;;2.70;;
66380;SDS011;53177;52.648;1.214;2023-04-24T06:41:29;12.77;;;2.63;;
66380;SDS011;53177;52.648;1.214;2023-04-24T06:43:54;10.23;;;2.50;;
66380;SDS011;53177;52.648;1.214;2023-04-24T06:46:20;8.13;;;2.27;;
66380;SDS011;53177;52.648;1.214;2023-04-24T06:48:49;10.07;;;2.10;;
66380;SDS011;53177;52.648;1.214;2023-04-24T06:51:15;8.68;;;2.33;;
66380;SDS011;53177;52.648;1.214;2023-04-24T06:53:42;11.17;;;3.00;;
66380;SDS011;53177;52.648;1.214;2023-04-24T06:56:07;11.63;;;2.88;;
66380;SDS011;53177;52.648;1.214;2023-04-24T06:58:33;8.57;;;2.47;;
66380;SDS011;53177;52.648;1.214;2023-04-24T07:00:58;8.80;;;2.97;;
66380;SDS011;53177;52.648;1.214;2023-04-24T07:03:24;16.03;;;3.90;;
66380;SDS011;53177;52.648;1.214;2023-04-24T07:05:49;14.17;;;4.07;;
66380;SDS011;53177;52.648;1.214;2023-04-24T07:08:14;10.90;;;3.55;;
66380;SDS011;53177;52.648;1.214;2023-04-24T07:10:42;12.25;;;3.88;;
66380;SDS011;53177;52.648;1.214;2023-04-24T07:13:07;13.95;;;3.83;;
66380;SDS011;53177;52.648;1.214;2023-04-24T07:15:33;18.00;;;4.17;;
66380;SDS011;53177;52.648;1.214;2023-04-24T07:17:59;12.80;;;3.77;;
66380;SDS011;53177;52.648;1.214;2023-04-24T07:20:24;13.27;;;3.85;;
66380;SDS011;53177;52.648;1.214;2023-04-24T07:22:50;12.18;;;3.60;;
66380;SDS011;53177;52.648;1.214;2023-04-24T07:25:16;12.50;;;3.97;;
66380;SDS011;53177;52.648;1.214;2023-04-24T07:27:42;15.45;;;3.90;;
66380;SDS011;53177;52.648;1.214;2023-04-24T07:30:07;12.00;;;3.50;;
66380;SDS011;53177;52.648;1.214;2023-04-24T07:32:33;12.52;;;3.92;;
66380;SDS011;53177;52.648;1.214;2023-04-24T07:35:00;11.35;;;3.95;;
66380;SDS011;53177;52.648;1.214;2023-04-24T07:37:25;11.87;;;3.87;;
66380;SDS011;53177;52.648;1.214;2023-04-24T07:39:51;13.90;;;4.07;;
66380;SDS011;53177;52.648;1.214;2023-04-24T07:42:16;14.88;;;3.83;;
66380;SDS011;53177;52.648;1.214;2023-04-24T07:44:42;12.15;;;3.85;;
66380;SDS011;53177;52.648;1.214;2023-04-24T07:47:07;17.23;;;4.63;;
66380;SDS011;53177;52.648;1.214;2023-04-24T07:49:33;14.60;;;3.93;;
66380;SDS011;53177;52.648;1.214;2023-04-24T07:51:59;16.00;;;3.45;;
66380;SDS011;53177;52.648;1.214;2023-04-24T07:54:26;12.15;;;3.80;;
66380;SDS011;53177;52.648;1.214;2023-04-24T07:56:52;13.27;;;4.10;;
66380;SDS011;53177;52.648;1.214;2023-04-24T07:59:17;11.83;;;4.00;;
66380;SDS011;53177;52.648;1.214;2023-04-24T08:01:43;13.27;;;4.40;;
66380;SDS011;53177;52.648;1.214;2023-04-24T08:04:08;13.70;;;4.28;;
66380;SDS011;53177;52.648;1.214;2023-04-24T08:06:33;13.27;;;4.27;;
66380;SDS011;53177;52.648;1.214;2023-04-24T08:08:59;14.37;;;5.00;;
66380;SDS011;53177;52.648;1.214;2023-04-24T08:11:25;17.90;;;5.15;;
66380;SDS011;53177;52.648;1.214;2023-04-24T08:13:54;13.53;;;4.57;;
66380;SDS011;53177;52.648;1.214;2023-04-24T08:16:22;14.25;;;4.78;;
66380;SDS011;53177;52.648;1.214;2023-04-24T08:18:51;12.73;;;4.60;;
66380;SDS011;53177;52.648;1.214;2023-04-24T08:21:17;14.23;;;4.00;;
66380;SDS011;53177;52.648;1.214;2023-04-24T08:23:44;11.10;;;4.07;;
66380;SDS011;53177;52.648;1.214;2023-04-24T08:26:11;12.52;;;4.45;;
66380;SDS011;53177;52.648;1.214;2023-04-24T08:28:37;12.32;;;4.53;;
66380;SDS011;53177;52.648;1.214;2023-04-24T08:31:02;13.65;;;4.18;;
66380;SDS011;53177;52.648;1.214;2023-04-24T08:33:28;11.48;;;4.38;;
66380;SDS011;53177;52.648;1.214;2023-04-24T08:35:59;7.97;;;3.28;;
66380;SDS011;53177;52.648;1.214;2023-04-24T08:38:25;7.93;;;3.33;;
66380;SDS011;53177;52.648;1.214;2023-04-24T08:40:51;11.27;;;3.55;;
66380;SDS011;53177;52.648;1.214;2023-04-24T08:43:17;11.27;;;3.53;;
66380;SDS011;53177;52.648;1.214;2023-04-24T08:45:43;14.90;;;3.53;;
66380;SDS011;53177;52.648;1.214;2023-04-24T08:48:09;12.55;;;3.38;;
66380;SDS011;53177;52.648;1.214;2023-04-24T08:50:34;13.20;;;3.47;;
66380;SDS011;53177;52.648;1.214;2023-04-24T08:53:00;9.20;;;3.17;;
66380;SDS011;53177;52.648;1.214;2023-04-24T08:55:26;11.77;;;3.03;;
66380;SDS011;53177;52.648;1.214;2023-04-24T08:57:52;12.57;;;3.50;;
66380;SDS011;53177;52.648;1.214;2023-04-24T09:00:19;8.60;;;3.17;;
66380;SDS011;53177;52.648;1.214;2023-04-24T09:02:46;13.30;;;3.40;;
66380;SDS011;53177;52.648;1.214;2023-04-24T09:05:13;10.25;;;3.63;;
66380;SDS011;53177;52.648;1.214;2023-04-24T09:07:41;12.63;;;4.00;;
66380;SDS011;53177;52.648;1.214;2023-04-24T09:10:11;12.23;;;3.83;;
66380;SDS011;53177;52.648;1.214;2023-04-24T09:12:37;14.90;;;4.57;;
66380;SDS011;53177;52.648;1.214;2023-04-24T09:15:02;15.37;;;4.33;;
66380;SDS011;53177;52.648;1.214;2023-04-24T09:17:31;11.93;;;3.50;;
66380;SDS011;53177;52.648;1.214;2023-04-24T09:19:58;10.77;;;3.63;;
66380;SDS011;53177;52.648;1.214;2023-04-24T09:22:23;12.07;;;3.95;;
66380;SDS011;53177;52.648;1.214;2023-04-24T09:24:59;11.40;;;3.63;;
66380;SDS011;53177;52.648;1.214;2023-04-24T09:27:27;14.65;;;5.03;;
66380;SDS011;53177;52.648;1.214;2023-04-24T09:29:54;13.83;;;3.83;;
66380;SDS011;53177;52.648;1.214;2023-04-24T09:32:22;15.93;;;4.20;;
66380;SDS011;53177;52.648;1.214;2023-04-24T09:35:04;14.10;;;4.70;;
66380;SDS011;53177;52.648;1.214;2023-04-24T09:37:41;14.02;;;4.53;;
66380;SDS011;53177;52.648;1.214;2023-04-24T09:42:44;14.30;;;3.30;;
66380;SDS011;53177;52.648;1.214;2023-04-24T09:45:11;12.90;;;3.20;;
66380;SDS011;53177;52.648;1.214;2023-04-24T09:47:37;11.90;;;3.20;;
66380;SDS011;53177;52.648;1.214;2023-04-24T09:50:10;12.57;;;3.30;;
66380;SDS011;53177;52.648;1.214;2023-04-24T09:52:40;12.82;;;3.45;;
66380;SDS011;53177;52.648;1.214;2023-04-24T09:55:20;12.52;;;3.17;;
66380;SDS011;53177;52.648;1.214;2023-04-24T09:57:59;13.18;;;3.40;;
66380;SDS011;53177;52.648;1.214;2023-04-24T10:00:29;12.55;;;3.97;;
66380;SDS011;53177;52.648;1.214;2023-04-24T10:03:04;13.32;;;4.20;;
66380;SDS011;53177;52.648;1.214;2023-04-24T10:05:34;12.70;;;4.40;;
66380;SDS011;53177;52.648;1.214;2023-04-24T10:08:01;13.13;;;3.80;;
66380;SDS011;53177;52.648;1.214;2023-04-24T10:10:34;10.77;;;3.58;;
66380;SDS011;53177;52.648;1.214;2023-04-24T10:13:04;14.73;;;3.70;;
66380;SDS011;53177;52.648;1.214;2023-04-24T10:15:30;10.77;;;3.03;;
66380;SDS011;53177;52.648;1.214;2023-04-24T10:17:55;16.47;;;3.63;;
66380;SDS011;53177;52.648;1.214;2023-04-24T10:20:24;10.63;;;3.40;;
66380;SDS011;53177;52.648;1.214;2023-04-24T10:22:52;9.13;;;2.65;;
66380;SDS011;53177;52.648;1.214;2023-04-24T10:25:19;11.40;;;2.85;;
66380;SDS011;53177;52.648;1.214;2023-04-24T10:27:46;10.97;;;2.70;;
66380;SDS011;53177;52.648;1.214;2023-04-24T10:30:13;10.63;;;2.90;;
66380;SDS011;53177;52.648;1.214;2023-04-24T10:32:39;11.50;;;2.90;;
66380;SDS011;53177;52.648;1.214;2023-04-24T10:35:07;10.47;;;2.83;;
66380;SDS011;53177;52.648;1.214;2023-04-24T10:37:35;12.52;;;2.80;;
66380;SDS011;53177;52.648;1.214;2023-04-24T10:40:26;12.50;;;2.90;;
66380;SDS011;53177;52.648;1.214;2023-04-24T10:42:55;13.95;;;3.10;;
66380;SDS011;53177;52.648;1.214;2023-04-24T10:45:21;12.45;;;3.35;;
66380;SDS011;53177;52.648;1.214;2023-04-24T10:50:43;13.73;;;3.55;;
66380;SDS011;53177;52.648;1.214;2023-04-24T10:53:16;9.57;;;3.15;;
66380;SDS011;53177;52.648;1.214;2023-04-24T10:55:50;10.50;;;3.10;;
66380;SDS011;53177;52.648;1.214;2023-04-24T10:58:18;12.57;;;3.30;;
66380;SDS011;53177;52.648;1.214;2023-04-24T11:00:55;11.35;;;3.00;;
66380;SDS011;53177;52.648;1.214;2023-04-24T11:05:52;13.20;;;3.50;;
66380;SDS011;53177;52.648;1.214;2023-04-24T11:08:25;11.65;;;3.03;;
66380;SDS011;53177;52.648;1.214;2023-04-24T11:11:33;14.10;;;3.50;;
66380;SDS011;53177;52.648;1.214;2023-04-24T11:27:17;12.88;;;3.17;;
66380;SDS011;53177;52.648;1.214;2023-04-24T11:32:15;10.30;;;3.17;;
66380;SDS011;53177;52.648;1.214;2023-04-24T11:34:53;15.07;;;3.53;;
66380;SDS011;53177;52.648;1.214;2023-04-24T11:37:23;12.75;;;3.22;;
66380;SDS011;53177;52.648;1.214;2023-04-24T11:39:53;12.98;;;3.83;;
66380;SDS011;53177;52.648;1.214;2023-04-24T11:42:20;8.75;;;3.30;;
66380;SDS011;53177;52.648;1.214;2023-04-24T11:44:47;13.20;;;3.60;;
66380;SDS011;53177;52.648;1.214;2023-04-24T11:47:12;13.30;;;3.65;;
66380;SDS011;53177;52.648;1.214;2023-04-24T11:49:38;13.93;;;3.57;;
66380;SDS011;53177;52.648;1.214;2023-04-24T11:52:04;14.33;;;3.47;;
66380;SDS011;53177;52.648;1.214;2023-04-24T11:54:30;11.85;;;3.00;;
66380;SDS011;53177;52.648;1.214;2023-04-24T11:56:56;11.17;;;3.33;;
66380;SDS011;53177;52.648;1.214;2023-04-24T11:59:21;18.27;;;3.85;;
66380;SDS011;53177;52.648;1.214;2023-04-24T12:01:47;10.13;;;2.83;;
66380;SDS011;53177;52.648;1.214;2023-04-24T12:04:14;10.07;;;3.00;;
66380;SDS011;53177;52.648;1.214;2023-04-24T12:06:58;9.27;;;2.72;;
66380;SDS011;53177;52.648;1.214;2023-04-24T12:09:25;10.90;;;3.25;;
66380;SDS011;53177;52.648;1.214;2023-04-24T12:11:54;16.03;;;3.33;;
66380;SDS011;53177;52.648;1.214;2023-04-24T12:14:23;9.82;;;3.05;;
66380;SDS011;53177;52.648;1.214;2023-04-24T12:16:49;11.73;;;3.17;;
66380;SDS011;53177;52.648;1.214;2023-04-24T12:19:21;11.55;;;3.08;;
66380;SDS011;53177;52.648;1.214;2023-04-24T12:22:03;9.40;;;3.08;;
66380;SDS011;53177;52.648;1.214;2023-04-24T12:24:31;13.60;;;3.70;;
66380;SDS011;53177;52.648;1.214;2023-04-24T12:26:57;14.27;;;3.35;;
66380;SDS011;53177;52.648;1.214;2023-04-24T12:29:24;15.07;;;3.38;;
66380;SDS011;53177;52.648;1.214;2023-04-24T12:31:50;12.85;;;3.58;;
66380;SDS011;53177;52.648;1.214;2023-04-24T12:34:17;13.50;;;3.38;;
66380;SDS011;53177;52.648;1.214;2023-04-24T12:36:43;11.82;;;3.17;;
66380;SDS011;53177;52.648;1.214;2023-04-24T12:39:14;12.03;;;3.10;;
66380;SDS011;53177;52.648;1.214;2023-04-24T12:41:49;11.18;;;2.85;;
66380;SDS011;53177;52.648;1.214;2023-04-24T12:44:15;11.77;;;3.30;;
66380;SDS011;53177;52.648;1.214;2023-04-24T12:46:41;12.63;;;3.30;;
66380;SDS011;53177;52.648;1.214;2023-04-24T12:49:06;8.67;;;2.97;;
66380;SDS011;53177;52.648;1.214;2023-04-24T12:51:31;13.33;;;3.20;;
66380;SDS011;53177;52.648;1.214;2023-04-24T12:53:57;12.87;;;3.03;;
66380;SDS011;53177;52.648;1.214;2023-04-24T12:56:22;18.07;;;3.77;;
66380;SDS011;53177;52.648;1.214;2023-04-24T12:58:48;10.13;;;3.05;;
66380;SDS011;53177;52.648;1.214;2023-04-24T13:01:15;12.40;;;2.73;;
66380;SDS011;53177;52.648;1.214;2023-04-24T13:03:42;11.82;;;2.72;;
66380;SDS011;53177;52.648;1.214;2023-04-24T13:06:08;13.38;;;3.45;;
66380;SDS011;53177;52.648;1.214;2023-04-24T13:08:33;8.83;;;3.27;;
66380;SDS011;53177;52.648;1.214;2023-04-24T13:10:59;13.23;;;3.30;;
66380;SDS011;53177;52.648;1.214;2023-04-24T13:13:24;14.20;;;3.00;;
66380;SDS011;53177;52.648;1.214;2023-04-24T13:15:50;12.07;;;2.70;;
66380;SDS011;53177;52.648;1.214;2023-04-24T13:18:15;13.23;;;3.00;;
66380;SDS011;53177;52.648;1.214;2023-04-24T13:20:41;10.83;;;3.43;;
66380;SDS011;53177;52.648;1.214;2023-04-24T13:23:06;14.30;;;3.20;;
66380;SDS011;53177;52.648;1.214;2023-04-24T13:25:34;14.88;;;3.10;;
66380;SDS011;53177;52.648;1.214;2023-04-24T13:28:01;10.03;;;3.13;;
66380;SDS011;53177;52.648;1.214;2023-04-24T13:30:26;10.40;;;3.13;;
66380;SDS011;53177;52.648;1.214;2023-04-24T13:32:52;15.63;;;3.00;;
66380;SDS011;53177;52.648;1.214;2023-04-24T13:35:17;12.00;;;3.03;;
66380;SDS011;53177;52.648;1.214;2023-04-24T13:37:42;13.93;;;3.13;;
66380;SDS011;53177;52.648;1.214;2023-04-24T13:40:08;12.77;;;3.43;;
66380;SDS011;53177;52.648;1.214;2023-04-24T13:42:34;13.80;;;3.25;;
66380;SDS011;53177;52.648;1.214;2023-04-24T13:44:59;10.47;;;2.90;;
66380;SDS011;53177;52.648;1.214;2023-04-24T13:47:25;12.30;;;3.40;;
66380;SDS011;53177;52.648;1.214;2023-04-24T13:49:50;10.88;;;3.22;;
66380;SDS011;53177;52.648;1.214;2023-04-24T13:52:15;12.40;;;3.10;;
66380;SDS011;53177;52.648;1.214;2023-04-24T13:54:41;12.63;;;2.90;;
66380;SDS011;53177;52.648;1.214;2023-04-24T13:57:07;15.57;;;3.00;;
66380;SDS011;53177;52.648;1.214;2023-04-24T13:59:32;13.40;;;2.88;;
66380;SDS011;53177;52.648;1.214;2023-04-24T14:01:58;13.80;;;3.00;;
66380;SDS011;53177;52.648;1.214;2023-04-24T14:04:23;14.20;;;2.70;;
66380;SDS011;53177;52.648;1.214;2023-04-24T14:06:48;11.87;;;2.90;;
66380;SDS011;53177;52.648;1.214;2023-04-24T14:09:14;12.68;;;2.70;;
66380;SDS011;53177;52.648;1.214;2023-04-24T14:11:40;11.20;;;2.60;;
66380;SDS011;53177;52.648;1.214;2023-04-24T14:14:05;13.27;;;3.15;;
66380;SDS011;53177;52.648;1.214;2023-04-24T14:16:31;15.50;;;3.13;;
66380;SDS011;53177;52.648;1.214;2023-04-24T14:18:56;14.40;;;3.00;;
66380;SDS011;53177;52.648;1.214;2023-04-24T14:21:22;14.20;;;3.50;;
66380;SDS011;53177;52.648;1.214;2023-04-24T14:23:47;13.75;;;3.13;;
66380;SDS011;53177;52.648;1.214;2023-04-24T14:26:12;10.97;;;2.77;;
66380;SDS011;53177;52.648;1.214;2023-04-24T14:28:38;11.63;;;3.17;;
66380;SDS011;53177;52.648;1.214;2023-04-24T14:31:04;12.50;;;3.00;;
66380;SDS011;53177;52.648;1.214;2023-04-24T14:33:29;15.25;;;2.97;;
66380;SDS011;53177;52.648;1.214;2023-04-24T14:35:55;12.93;;;2.77;;
66380;SDS011;53177;52.648;1.214;2023-04-24T14:38:20;10.30;;;3.10;;
66380;SDS011;53177;52.648;1.214;2023-04-24T14:40:46;13.38;;;3.42;;
66380;SDS011;53177;52.648;1.214;2023-04-24T14:43:12;14.17;;;3.43;;
66380;SDS011;53177;52.648;1.214;2023-04-24T14:45:37;19.27;;;3.47;;
66380;SDS011;53177;52.648;1.214;2023-04-24T14:48:03;17.25;;;3.42;;
66380;SDS011;53177;52.648;1.214;2023-04-24T14:50:29;21.90;;;3.30;;
66380;SDS011;53177;52.648;1.214;2023-04-24T14:52:54;13.82;;;2.90;;
66380;SDS011;53177;52.648;1.214;2023-04-24T14:55:22;13.35;;;2.83;;